sensor_id;sensor_type;location;lat;lon;timestamp;P1;durP1;ratioP1;P2;durP2;ratioP2
56242;SDS011;42155;53.096;23.226;2023-07-29T00:01:50;29.40;;;18.48;;
56242;SDS011;42155;53.096;23.226;2023-07-29T00:03:51;30.58;;;18.83;;
56242;SDS011;42155;53.096;23.226;2023-07-29T00:05:51;27.88;;;17.58;;
56242;SDS011;42155;53.096;23.226;2023-07-29T00:07:51;28.35;;;17.95;;
56242;SDS011;42155;53.096;23.226;2023-07-29T00:09:52;23.25;;;16.48;;
56242;SDS011;42155;53.096;23.226;2023-07-29T00:11:52;25.23;;;16.88;;
56242;SDS011;42155;53.096;23.226;2023-07-29T00:13:52;25.70;;;17.00;;
56242;SDS011;42155;53.096;23.226;2023-07-29T00:15:53;25.08;;;16.38;;
56242;SDS011;42155;53.096;23.226;2023-07-29T00:17:54;26.73;;;15.95;;
56242;SDS011;42155;53.096;23.226;2023-07-29T00:19:55;23.77;;;16.17;;
56242;SDS011;42155;53.096;23.226;2023-07-29T00:21:55;20.88;;;14.93;;
56242;SDS011;42155;53.096;23.226;2023-07-29T00:23:55;23.92;;;15.30;;
56242;SDS011;42155;53.096;23.226;2023-07-29T00:25:56;21.20;;;14.52;;
56242;SDS011;42155;53.096;23.226;2023-07-29T00:27:56;22.38;;;14.73;;
56242;SDS011;42155;53.096;23.226;2023-07-29T00:29:57;21.00;;;14.50;;
56242;SDS011;42155;53.096;23.226;2023-07-29T00:31:57;21.08;;;14.52;;
56242;SDS011;42155;53.096;23.226;2023-07-29T00:33:57;21.20;;;13.38;;
56242;SDS011;42155;53.096;23.226;2023-07-29T00:35:58;19.80;;;14.40;;
56242;SDS011;42155;53.096;23.226;2023-07-29T00:37:58;22.30;;;14.30;;
56242;SDS011;42155;53.096;23.226;2023-07-29T00:39:58;24.70;;;14.10;;
56242;SDS011;42155;53.096;23.226;2023-07-29T00:41:59;21.35;;;14.00;;
56242;SDS011;42155;53.096;23.226;2023-07-29T00:43:59;21.45;;;14.65;;
56242;SDS011;42155;53.096;23.226;2023-07-29T00:46:00;21.80;;;14.52;;
56242;SDS011;42155;53.096;23.226;2023-07-29T00:48:01;20.35;;;14.80;;
56242;SDS011;42155;53.096;23.226;2023-07-29T00:50:02;20.38;;;14.07;;
56242;SDS011;42155;53.096;23.226;2023-07-29T00:52:03;27.83;;;15.15;;
56242;SDS011;42155;53.096;23.226;2023-07-29T00:54:03;20.33;;;14.13;;
56242;SDS011;42155;53.096;23.226;2023-07-29T00:56:03;21.50;;;14.77;;
56242;SDS011;42155;53.096;23.226;2023-07-29T00:58:04;17.90;;;13.13;;
56242;SDS011;42155;53.096;23.226;2023-07-29T01:00:05;20.42;;;13.27;;
56242;SDS011;42155;53.096;23.226;2023-07-29T01:02:05;17.77;;;12.95;;
56242;SDS011;42155;53.096;23.226;2023-07-29T01:04:06;20.35;;;14.55;;
56242;SDS011;42155;53.096;23.226;2023-07-29T01:06:14;20.33;;;13.73;;
56242;SDS011;42155;53.096;23.226;2023-07-29T01:08:33;26.30;;;14.10;;
56242;SDS011;42155;53.096;23.226;2023-07-29T01:10:46;19.98;;;13.63;;
56242;SDS011;42155;53.096;23.226;2023-07-29T01:15:53;18.80;;;12.77;;
56242;SDS011;42155;53.096;23.226;2023-07-29T01:18:04;17.25;;;12.20;;
56242;SDS011;42155;53.096;23.226;2023-07-29T01:20:34;16.65;;;11.88;;
56242;SDS011;42155;53.096;23.226;2023-07-29T01:22:38;19.67;;;12.75;;
56242;SDS011;42155;53.096;23.226;2023-07-29T01:24:39;17.23;;;12.10;;
56242;SDS011;42155;53.096;23.226;2023-07-29T01:26:40;15.32;;;11.35;;
56242;SDS011;42155;53.096;23.226;2023-07-29T01:28:40;16.98;;;12.02;;
56242;SDS011;42155;53.096;23.226;2023-07-29T01:30:40;16.08;;;11.40;;
56242;SDS011;42155;53.096;23.226;2023-07-29T01:32:45;17.27;;;12.02;;
56242;SDS011;42155;53.096;23.226;2023-07-29T01:37:42;18.20;;;11.68;;
56242;SDS011;42155;53.096;23.226;2023-07-29T01:39:49;17.35;;;12.40;;
56242;SDS011;42155;53.096;23.226;2023-07-29T01:41:50;18.95;;;11.65;;
56242;SDS011;42155;53.096;23.226;2023-07-29T01:43:51;18.70;;;11.77;;
56242;SDS011;42155;53.096;23.226;2023-07-29T01:45:52;20.60;;;13.48;;
56242;SDS011;42155;53.096;23.226;2023-07-29T01:47:53;16.58;;;11.82;;
56242;SDS011;42155;53.096;23.226;2023-07-29T01:49:53;17.33;;;12.60;;
56242;SDS011;42155;53.096;23.226;2023-07-29T01:51:54;17.88;;;12.13;;
56242;SDS011;42155;53.096;23.226;2023-07-29T01:53:54;21.83;;;12.30;;
56242;SDS011;42155;53.096;23.226;2023-07-29T01:55:54;16.95;;;11.95;;
56242;SDS011;42155;53.096;23.226;2023-07-29T01:57:55;18.17;;;11.82;;
56242;SDS011;42155;53.096;23.226;2023-07-29T01:59:55;16.83;;;12.13;;
56242;SDS011;42155;53.096;23.226;2023-07-29T02:01:56;19.02;;;12.73;;
56242;SDS011;42155;53.096;23.226;2023-07-29T02:03:56;19.75;;;12.52;;
56242;SDS011;42155;53.096;23.226;2023-07-29T02:05:56;16.85;;;12.02;;
56242;SDS011;42155;53.096;23.226;2023-07-29T02:07:57;18.10;;;13.05;;
56242;SDS011;42155;53.096;23.226;2023-07-29T02:09:57;20.10;;;12.65;;
56242;SDS011;42155;53.096;23.226;2023-07-29T02:11:57;20.75;;;13.10;;
56242;SDS011;42155;53.096;23.226;2023-07-29T02:13:58;18.17;;;12.27;;
56242;SDS011;42155;53.096;23.226;2023-07-29T02:15:58;22.50;;;13.18;;
56242;SDS011;42155;53.096;23.226;2023-07-29T02:17:58;22.55;;;14.10;;
56242;SDS011;42155;53.096;23.226;2023-07-29T02:19:59;23.52;;;13.73;;
56242;SDS011;42155;53.096;23.226;2023-07-29T02:21:59;21.35;;;13.57;;
56242;SDS011;42155;53.096;23.226;2023-07-29T02:24:00;22.58;;;13.25;;
56242;SDS011;42155;53.096;23.226;2023-07-29T02:26:00;19.58;;;12.23;;
56242;SDS011;42155;53.096;23.226;2023-07-29T02:28:00;22.08;;;13.57;;
56242;SDS011;42155;53.096;23.226;2023-07-29T02:30:01;17.45;;;12.43;;
56242;SDS011;42155;53.096;23.226;2023-07-29T02:32:02;18.73;;;12.45;;
56242;SDS011;42155;53.096;23.226;2023-07-29T02:34:03;19.10;;;13.15;;
56242;SDS011;42155;53.096;23.226;2023-07-29T02:36:03;17.45;;;12.50;;
56242;SDS011;42155;53.096;23.226;2023-07-29T02:38:04;18.30;;;12.52;;
56242;SDS011;42155;53.096;23.226;2023-07-29T02:40:04;17.90;;;12.40;;
56242;SDS011;42155;53.096;23.226;2023-07-29T02:42:05;19.13;;;12.80;;
56242;SDS011;42155;53.096;23.226;2023-07-29T02:44:05;18.05;;;12.40;;
56242;SDS011;42155;53.096;23.226;2023-07-29T02:46:06;19.15;;;12.52;;
56242;SDS011;42155;53.096;23.226;2023-07-29T02:48:06;16.38;;;11.35;;
56242;SDS011;42155;53.096;23.226;2023-07-29T02:50:06;19.67;;;12.77;;
56242;SDS011;42155;53.096;23.226;2023-07-29T02:52:07;18.00;;;11.85;;
56242;SDS011;42155;53.096;23.226;2023-07-29T02:54:07;15.10;;;11.60;;
56242;SDS011;42155;53.096;23.226;2023-07-29T02:56:08;18.95;;;12.05;;
56242;SDS011;42155;53.096;23.226;2023-07-29T02:58:08;15.10;;;11.05;;
56242;SDS011;42155;53.096;23.226;2023-07-29T03:00:09;17.55;;;11.52;;
56242;SDS011;42155;53.096;23.226;2023-07-29T03:02:09;18.58;;;12.10;;
56242;SDS011;42155;53.096;23.226;2023-07-29T03:04:11;16.05;;;10.57;;
56242;SDS011;42155;53.096;23.226;2023-07-29T03:06:13;16.85;;;11.50;;
56242;SDS011;42155;53.096;23.226;2023-07-29T03:08:14;16.00;;;11.95;;
56242;SDS011;42155;53.096;23.226;2023-07-29T03:10:14;18.13;;;12.05;;
56242;SDS011;42155;53.096;23.226;2023-07-29T03:12:15;16.83;;;11.38;;
56242;SDS011;42155;53.096;23.226;2023-07-29T03:14:15;16.55;;;11.52;;
56242;SDS011;42155;53.096;23.226;2023-07-29T03:16:16;16.58;;;10.82;;
56242;SDS011;42155;53.096;23.226;2023-07-29T03:18:17;19.30;;;12.73;;
56242;SDS011;42155;53.096;23.226;2023-07-29T03:20:18;14.48;;;10.95;;
56242;SDS011;42155;53.096;23.226;2023-07-29T03:22:19;16.40;;;10.30;;
56242;SDS011;42155;53.096;23.226;2023-07-29T03:24:19;17.05;;;11.35;;
56242;SDS011;42155;53.096;23.226;2023-07-29T03:26:20;15.45;;;11.45;;
56242;SDS011;42155;53.096;23.226;2023-07-29T03:28:20;16.20;;;11.20;;
56242;SDS011;42155;53.096;23.226;2023-07-29T03:30:21;16.63;;;11.20;;
56242;SDS011;42155;53.096;23.226;2023-07-29T03:32:22;16.17;;;11.52;;
56242;SDS011;42155;53.096;23.226;2023-07-29T03:34:22;17.17;;;11.18;;
56242;SDS011;42155;53.096;23.226;2023-07-29T03:36:23;14.13;;;10.38;;
56242;SDS011;42155;53.096;23.226;2023-07-29T03:38:23;16.70;;;11.60;;
56242;SDS011;42155;53.096;23.226;2023-07-29T03:40:24;14.55;;;10.35;;
56242;SDS011;42155;53.096;23.226;2023-07-29T03:42:24;15.25;;;10.43;;
56242;SDS011;42155;53.096;23.226;2023-07-29T03:44:24;15.90;;;11.02;;
56242;SDS011;42155;53.096;23.226;2023-07-29T03:46:25;16.35;;;10.90;;
56242;SDS011;42155;53.096;23.226;2023-07-29T03:48:25;16.33;;;11.40;;
56242;SDS011;42155;53.096;23.226;2023-07-29T03:50:26;14.45;;;10.13;;
56242;SDS011;42155;53.096;23.226;2023-07-29T03:52:26;14.45;;;10.43;;
56242;SDS011;42155;53.096;23.226;2023-07-29T03:54:27;14.35;;;10.50;;
56242;SDS011;42155;53.096;23.226;2023-07-29T03:56:27;13.73;;;10.05;;
56242;SDS011;42155;53.096;23.226;2023-07-29T03:58:27;16.33;;;10.80;;
56242;SDS011;42155;53.096;23.226;2023-07-29T04:00:28;15.95;;;10.57;;
56242;SDS011;42155;53.096;23.226;2023-07-29T04:02:28;14.02;;;10.45;;
56242;SDS011;42155;53.096;23.226;2023-07-29T04:04:28;16.77;;;10.52;;
56242;SDS011;42155;53.096;23.226;2023-07-29T04:06:29;19.10;;;10.93;;
56242;SDS011;42155;53.096;23.226;2023-07-29T04:08:29;14.95;;;10.63;;
56242;SDS011;42155;53.096;23.226;2023-07-29T04:10:29;15.52;;;11.25;;
56242;SDS011;42155;53.096;23.226;2023-07-29T04:12:30;15.27;;;11.52;;
56242;SDS011;42155;53.096;23.226;2023-07-29T04:14:30;14.18;;;10.32;;
56242;SDS011;42155;53.096;23.226;2023-07-29T04:16:31;16.50;;;11.65;;
56242;SDS011;42155;53.096;23.226;2023-07-29T04:18:31;17.83;;;11.90;;
56242;SDS011;42155;53.096;23.226;2023-07-29T04:20:31;16.80;;;12.63;;
56242;SDS011;42155;53.096;23.226;2023-07-29T04:22:31;17.77;;;11.90;;
56242;SDS011;42155;53.096;23.226;2023-07-29T04:24:32;15.27;;;11.30;;
56242;SDS011;42155;53.096;23.226;2023-07-29T04:26:32;15.30;;;11.45;;
56242;SDS011;42155;53.096;23.226;2023-07-29T04:28:32;16.90;;;11.23;;
56242;SDS011;42155;53.096;23.226;2023-07-29T04:30:33;18.33;;;12.00;;
56242;SDS011;42155;53.096;23.226;2023-07-29T04:32:33;17.70;;;12.60;;
56242;SDS011;42155;53.096;23.226;2023-07-29T04:34:33;16.95;;;12.38;;
56242;SDS011;42155;53.096;23.226;2023-07-29T04:36:34;16.25;;;11.77;;
56242;SDS011;42155;53.096;23.226;2023-07-29T04:38:36;15.55;;;11.43;;
56242;SDS011;42155;53.096;23.226;2023-07-29T04:40:37;17.38;;;12.38;;
56242;SDS011;42155;53.096;23.226;2023-07-29T04:42:37;18.02;;;12.20;;
56242;SDS011;42155;53.096;23.226;2023-07-29T04:44:38;16.02;;;11.38;;
56242;SDS011;42155;53.096;23.226;2023-07-29T04:46:38;16.90;;;11.48;;
56242;SDS011;42155;53.096;23.226;2023-07-29T04:48:38;18.50;;;12.32;;
56242;SDS011;42155;53.096;23.226;2023-07-29T04:50:39;17.42;;;12.63;;
56242;SDS011;42155;53.096;23.226;2023-07-29T04:52:39;17.95;;;12.32;;
56242;SDS011;42155;53.096;23.226;2023-07-29T04:54:39;17.58;;;12.65;;
56242;SDS011;42155;53.096;23.226;2023-07-29T04:56:40;16.95;;;11.70;;
56242;SDS011;42155;53.096;23.226;2023-07-29T04:58:40;16.92;;;11.63;;
56242;SDS011;42155;53.096;23.226;2023-07-29T05:00:40;16.70;;;12.55;;
56242;SDS011;42155;53.096;23.226;2023-07-29T05:02:41;13.70;;;11.00;;
56242;SDS011;42155;53.096;23.226;2023-07-29T05:04:41;15.32;;;11.13;;
56242;SDS011;42155;53.096;23.226;2023-07-29T05:06:41;18.30;;;11.57;;
56242;SDS011;42155;53.096;23.226;2023-07-29T05:08:42;18.35;;;11.57;;
56242;SDS011;42155;53.096;23.226;2023-07-29T05:10:42;18.08;;;12.32;;
56242;SDS011;42155;53.096;23.226;2023-07-29T05:12:42;18.00;;;12.65;;
56242;SDS011;42155;53.096;23.226;2023-07-29T05:14:43;16.85;;;13.00;;
56242;SDS011;42155;53.096;23.226;2023-07-29T05:16:43;19.92;;;11.90;;
56242;SDS011;42155;53.096;23.226;2023-07-29T05:18:44;16.90;;;12.05;;
56242;SDS011;42155;53.096;23.226;2023-07-29T05:20:44;17.10;;;12.07;;
56242;SDS011;42155;53.096;23.226;2023-07-29T05:22:44;17.08;;;11.50;;
56242;SDS011;42155;53.096;23.226;2023-07-29T05:24:45;16.95;;;12.07;;
56242;SDS011;42155;53.096;23.226;2023-07-29T05:26:45;17.60;;;11.63;;
56242;SDS011;42155;53.096;23.226;2023-07-29T05:28:45;18.63;;;11.77;;
56242;SDS011;42155;53.096;23.226;2023-07-29T05:30:46;13.95;;;10.80;;
56242;SDS011;42155;53.096;23.226;2023-07-29T05:32:46;15.90;;;11.50;;
56242;SDS011;42155;53.096;23.226;2023-07-29T05:34:46;15.43;;;11.55;;
56242;SDS011;42155;53.096;23.226;2023-07-29T05:36:47;17.15;;;11.27;;
56242;SDS011;42155;53.096;23.226;2023-07-29T05:38:47;15.90;;;11.57;;
56242;SDS011;42155;53.096;23.226;2023-07-29T05:40:48;22.42;;;11.98;;
56242;SDS011;42155;53.096;23.226;2023-07-29T05:42:49;21.08;;;13.13;;
56242;SDS011;42155;53.096;23.226;2023-07-29T05:44:49;16.08;;;11.50;;
56242;SDS011;42155;53.096;23.226;2023-07-29T05:46:49;15.93;;;11.23;;
56242;SDS011;42155;53.096;23.226;2023-07-29T05:48:49;17.67;;;11.75;;
56242;SDS011;42155;53.096;23.226;2023-07-29T05:50:50;16.50;;;11.70;;
56242;SDS011;42155;53.096;23.226;2023-07-29T05:52:50;17.83;;;11.32;;
56242;SDS011;42155;53.096;23.226;2023-07-29T05:54:50;17.40;;;10.70;;
56242;SDS011;42155;53.096;23.226;2023-07-29T05:56:51;19.17;;;11.80;;
56242;SDS011;42155;53.096;23.226;2023-07-29T05:58:51;16.45;;;10.82;;
56242;SDS011;42155;53.096;23.226;2023-07-29T06:00:51;15.20;;;11.07;;
56242;SDS011;42155;53.096;23.226;2023-07-29T06:02:52;15.80;;;10.77;;
56242;SDS011;42155;53.096;23.226;2023-07-29T06:04:52;18.08;;;11.32;;
56242;SDS011;42155;53.096;23.226;2023-07-29T06:06:52;17.00;;;11.07;;
56242;SDS011;42155;53.096;23.226;2023-07-29T06:08:53;17.80;;;12.27;;
56242;SDS011;42155;53.096;23.226;2023-07-29T06:10:53;17.00;;;12.20;;
56242;SDS011;42155;53.096;23.226;2023-07-29T06:12:53;16.83;;;11.63;;
56242;SDS011;42155;53.096;23.226;2023-07-29T06:14:54;17.38;;;11.60;;
56242;SDS011;42155;53.096;23.226;2023-07-29T06:16:54;17.95;;;12.27;;
56242;SDS011;42155;53.096;23.226;2023-07-29T06:18:54;17.40;;;12.15;;
56242;SDS011;42155;53.096;23.226;2023-07-29T06:20:56;17.75;;;12.43;;
56242;SDS011;42155;53.096;23.226;2023-07-29T06:22:57;16.83;;;12.10;;
56242;SDS011;42155;53.096;23.226;2023-07-29T06:24:57;19.60;;;12.55;;
56242;SDS011;42155;53.096;23.226;2023-07-29T06:26:57;16.20;;;11.85;;
56242;SDS011;42155;53.096;23.226;2023-07-29T06:28:58;17.40;;;12.60;;
56242;SDS011;42155;53.096;23.226;2023-07-29T06:30:58;17.42;;;11.55;;
56242;SDS011;42155;53.096;23.226;2023-07-29T06:32:59;16.98;;;11.82;;
56242;SDS011;42155;53.096;23.226;2023-07-29T06:34:59;18.85;;;11.65;;
56242;SDS011;42155;53.096;23.226;2023-07-29T06:36:59;19.23;;;12.95;;
56242;SDS011;42155;53.096;23.226;2023-07-29T06:38:59;20.05;;;12.63;;
56242;SDS011;42155;53.096;23.226;2023-07-29T06:41:00;19.08;;;12.95;;
56242;SDS011;42155;53.096;23.226;2023-07-29T06:43:00;18.92;;;12.73;;
56242;SDS011;42155;53.096;23.226;2023-07-29T06:45:00;21.92;;;12.65;;
56242;SDS011;42155;53.096;23.226;2023-07-29T06:47:01;20.13;;;12.95;;
56242;SDS011;42155;53.096;23.226;2023-07-29T06:49:01;20.80;;;13.10;;
56242;SDS011;42155;53.096;23.226;2023-07-29T06:51:01;16.95;;;12.32;;
56242;SDS011;42155;53.096;23.226;2023-07-29T06:53:02;20.42;;;13.02;;
56242;SDS011;42155;53.096;23.226;2023-07-29T06:55:03;16.77;;;11.93;;
56242;SDS011;42155;53.096;23.226;2023-07-29T06:57:04;16.60;;;11.82;;
56242;SDS011;42155;53.096;23.226;2023-07-29T06:59:04;18.45;;;11.75;;
56242;SDS011;42155;53.096;23.226;2023-07-29T07:01:05;14.75;;;10.35;;
56242;SDS011;42155;53.096;23.226;2023-07-29T07:03:05;14.77;;;10.23;;
56242;SDS011;42155;53.096;23.226;2023-07-29T07:05:05;14.70;;;10.27;;
56242;SDS011;42155;53.096;23.226;2023-07-29T07:07:06;18.08;;;10.80;;
56242;SDS011;42155;53.096;23.226;2023-07-29T07:09:06;16.48;;;11.10;;
56242;SDS011;42155;53.096;23.226;2023-07-29T07:11:07;15.68;;;10.88;;
56242;SDS011;42155;53.096;23.226;2023-07-29T07:13:07;14.00;;;9.95;;
56242;SDS011;42155;53.096;23.226;2023-07-29T07:15:07;13.82;;;10.40;;
56242;SDS011;42155;53.096;23.226;2023-07-29T07:17:08;15.00;;;8.95;;
56242;SDS011;42155;53.096;23.226;2023-07-29T07:19:08;13.90;;;9.07;;
56242;SDS011;42155;53.096;23.226;2023-07-29T07:21:09;11.20;;;8.05;;
56242;SDS011;42155;53.096;23.226;2023-07-29T07:23:09;12.55;;;8.73;;
56242;SDS011;42155;53.096;23.226;2023-07-29T07:25:09;12.93;;;8.70;;
56242;SDS011;42155;53.096;23.226;2023-07-29T07:27:10;15.20;;;8.82;;
56242;SDS011;42155;53.096;23.226;2023-07-29T07:29:10;13.80;;;8.77;;
56242;SDS011;42155;53.096;23.226;2023-07-29T07:31:10;13.55;;;8.70;;
56242;SDS011;42155;53.096;23.226;2023-07-29T07:33:11;13.18;;;8.73;;
56242;SDS011;42155;53.096;23.226;2023-07-29T07:35:11;12.75;;;8.27;;
56242;SDS011;42155;53.096;23.226;2023-07-29T07:37:11;12.93;;;8.05;;
56242;SDS011;42155;53.096;23.226;2023-07-29T07:39:12;14.68;;;8.38;;
56242;SDS011;42155;53.096;23.226;2023-07-29T07:41:13;11.90;;;7.82;;
56242;SDS011;42155;53.096;23.226;2023-07-29T07:43:13;9.95;;;6.85;;
56242;SDS011;42155;53.096;23.226;2023-07-29T07:45:13;13.18;;;8.40;;
56242;SDS011;42155;53.096;23.226;2023-07-29T07:47:14;13.43;;;8.65;;
56242;SDS011;42155;53.096;23.226;2023-07-29T07:49:14;10.88;;;7.30;;
56242;SDS011;42155;53.096;23.226;2023-07-29T07:51:14;11.73;;;7.68;;
56242;SDS011;42155;53.096;23.226;2023-07-29T07:53:15;11.23;;;7.25;;
56242;SDS011;42155;53.096;23.226;2023-07-29T07:55:15;11.35;;;7.53;;
56242;SDS011;42155;53.096;23.226;2023-07-29T07:57:15;12.35;;;6.72;;
56242;SDS011;42155;53.096;23.226;2023-07-29T07:59:16;9.77;;;7.22;;
56242;SDS011;42155;53.096;23.226;2023-07-29T08:01:16;8.48;;;6.80;;
56242;SDS011;42155;53.096;23.226;2023-07-29T08:03:17;10.18;;;6.53;;
56242;SDS011;42155;53.096;23.226;2023-07-29T08:05:17;11.32;;;7.10;;
56242;SDS011;42155;53.096;23.226;2023-07-29T08:07:18;8.50;;;6.43;;
56242;SDS011;42155;53.096;23.226;2023-07-29T08:09:18;7.40;;;6.00;;
56242;SDS011;42155;53.096;23.226;2023-07-29T08:11:20;8.70;;;6.57;;
56242;SDS011;42155;53.096;23.226;2023-07-29T08:13:20;11.18;;;6.22;;
56242;SDS011;42155;53.096;23.226;2023-07-29T08:15:21;9.00;;;6.40;;
56242;SDS011;42155;53.096;23.226;2023-07-29T08:17:21;7.47;;;5.63;;
56242;SDS011;42155;53.096;23.226;2023-07-29T08:19:22;9.57;;;6.50;;
56242;SDS011;42155;53.096;23.226;2023-07-29T08:21:23;7.30;;;5.72;;
56242;SDS011;42155;53.096;23.226;2023-07-29T08:23:24;7.95;;;5.25;;
56242;SDS011;42155;53.096;23.226;2023-07-29T08:25:25;8.95;;;6.07;;
56242;SDS011;42155;53.096;23.226;2023-07-29T08:27:25;9.18;;;5.55;;
56242;SDS011;42155;53.096;23.226;2023-07-29T08:29:25;9.60;;;5.25;;
56242;SDS011;42155;53.096;23.226;2023-07-29T08:31:26;6.70;;;5.50;;
56242;SDS011;42155;53.096;23.226;2023-07-29T08:33:26;7.45;;;5.50;;
56242;SDS011;42155;53.096;23.226;2023-07-29T08:35:27;5.97;;;5.20;;
56242;SDS011;42155;53.096;23.226;2023-07-29T08:37:27;7.05;;;4.90;;
56242;SDS011;42155;53.096;23.226;2023-07-29T08:39:27;7.78;;;5.35;;
56242;SDS011;42155;53.096;23.226;2023-07-29T08:41:29;7.05;;;4.60;;
56242;SDS011;42155;53.096;23.226;2023-07-29T08:43:38;11.02;;;5.50;;
56242;SDS011;42155;53.096;23.226;2023-07-29T08:45:41;7.45;;;5.28;;
56242;SDS011;42155;53.096;23.226;2023-07-29T08:47:43;9.82;;;5.65;;
56242;SDS011;42155;53.096;23.226;2023-07-29T08:49:44;8.60;;;5.05;;
56242;SDS011;42155;53.096;23.226;2023-07-29T08:51:46;6.82;;;5.60;;
56242;SDS011;42155;53.096;23.226;2023-07-29T08:53:47;10.35;;;5.80;;
56242;SDS011;42155;53.096;23.226;2023-07-29T08:55:48;9.00;;;5.15;;
56242;SDS011;42155;53.096;23.226;2023-07-29T08:57:48;6.85;;;5.10;;
56242;SDS011;42155;53.096;23.226;2023-07-29T08:59:49;7.40;;;4.45;;
56242;SDS011;42155;53.096;23.226;2023-07-29T09:01:49;5.97;;;4.68;;
56242;SDS011;42155;53.096;23.226;2023-07-29T09:03:51;9.75;;;4.95;;
56242;SDS011;42155;53.096;23.226;2023-07-29T09:05:51;6.22;;;4.43;;
56242;SDS011;42155;53.096;23.226;2023-07-29T09:07:52;8.23;;;4.50;;
56242;SDS011;42155;53.096;23.226;2023-07-29T09:09:54;8.02;;;4.93;;
56242;SDS011;42155;53.096;23.226;2023-07-29T09:11:55;6.45;;;4.40;;
56242;SDS011;42155;53.096;23.226;2023-07-29T09:13:56;6.00;;;4.20;;
56242;SDS011;42155;53.096;23.226;2023-07-29T09:15:57;4.55;;;3.75;;
56242;SDS011;42155;53.096;23.226;2023-07-29T09:17:58;5.78;;;3.97;;
56242;SDS011;42155;53.096;23.226;2023-07-29T09:19:58;8.65;;;3.90;;
56242;SDS011;42155;53.096;23.226;2023-07-29T09:21:59;8.55;;;4.68;;
56242;SDS011;42155;53.096;23.226;2023-07-29T09:24:03;6.47;;;4.18;;
56242;SDS011;42155;53.096;23.226;2023-07-29T09:26:04;5.25;;;3.83;;
56242;SDS011;42155;53.096;23.226;2023-07-29T09:28:08;6.47;;;3.97;;
56242;SDS011;42155;53.096;23.226;2023-07-29T09:30:15;6.88;;;4.05;;
56242;SDS011;42155;53.096;23.226;2023-07-29T09:32:23;7.82;;;3.80;;
56242;SDS011;42155;53.096;23.226;2023-07-29T09:34:24;7.70;;;4.15;;
56242;SDS011;42155;53.096;23.226;2023-07-29T09:36:25;5.78;;;4.07;;
56242;SDS011;42155;53.096;23.226;2023-07-29T09:38:27;4.82;;;3.58;;
56242;SDS011;42155;53.096;23.226;2023-07-29T09:40:27;5.85;;;3.28;;
56242;SDS011;42155;53.096;23.226;2023-07-29T09:42:34;4.53;;;3.25;;
56242;SDS011;42155;53.096;23.226;2023-07-29T09:44:37;7.63;;;3.63;;
56242;SDS011;42155;53.096;23.226;2023-07-29T09:46:38;6.30;;;3.50;;
56242;SDS011;42155;53.096;23.226;2023-07-29T09:48:38;6.25;;;3.13;;
56242;SDS011;42155;53.096;23.226;2023-07-29T09:50:38;4.65;;;2.85;;
56242;SDS011;42155;53.096;23.226;2023-07-29T09:52:39;4.57;;;2.92;;
56242;SDS011;42155;53.096;23.226;2023-07-29T09:54:39;4.28;;;3.03;;
56242;SDS011;42155;53.096;23.226;2023-07-29T09:56:41;6.72;;;3.47;;
56242;SDS011;42155;53.096;23.226;2023-07-29T09:58:45;4.45;;;3.20;;
56242;SDS011;42155;53.096;23.226;2023-07-29T10:00:45;5.60;;;3.20;;
56242;SDS011;42155;53.096;23.226;2023-07-29T10:02:46;5.03;;;3.10;;
56242;SDS011;42155;53.096;23.226;2023-07-29T10:04:47;3.65;;;2.60;;
56242;SDS011;42155;53.096;23.226;2023-07-29T10:06:49;3.63;;;2.40;;
56242;SDS011;42155;53.096;23.226;2023-07-29T10:08:50;4.40;;;2.72;;
56242;SDS011;42155;53.096;23.226;2023-07-29T10:10:51;6.35;;;2.83;;
56242;SDS011;42155;53.096;23.226;2023-07-29T10:12:52;4.22;;;2.53;;
56242;SDS011;42155;53.096;23.226;2023-07-29T10:14:54;4.40;;;2.92;;
56242;SDS011;42155;53.096;23.226;2023-07-29T10:16:58;6.05;;;3.13;;
56242;SDS011;42155;53.096;23.226;2023-07-29T10:19:00;3.72;;;2.90;;
56242;SDS011;42155;53.096;23.226;2023-07-29T10:21:01;4.00;;;2.83;;
56242;SDS011;42155;53.096;23.226;2023-07-29T10:23:02;5.30;;;2.95;;
56242;SDS011;42155;53.096;23.226;2023-07-29T10:25:18;5.82;;;3.05;;
56242;SDS011;42155;53.096;23.226;2023-07-29T10:27:21;4.85;;;2.72;;
56242;SDS011;42155;53.096;23.226;2023-07-29T10:29:24;5.65;;;2.80;;
56242;SDS011;42155;53.096;23.226;2023-07-29T10:31:38;4.88;;;2.80;;
56242;SDS011;42155;53.096;23.226;2023-07-29T10:33:40;5.15;;;2.85;;
56242;SDS011;42155;53.096;23.226;2023-07-29T10:35:41;3.78;;;2.72;;
56242;SDS011;42155;53.096;23.226;2023-07-29T10:37:42;5.68;;;2.92;;
56242;SDS011;42155;53.096;23.226;2023-07-29T10:39:51;4.88;;;2.83;;
56242;SDS011;42155;53.096;23.226;2023-07-29T10:41:57;6.80;;;3.20;;
56242;SDS011;42155;53.096;23.226;2023-07-29T10:44:01;6.18;;;2.95;;
56242;SDS011;42155;53.096;23.226;2023-07-29T10:46:20;4.70;;;2.90;;
56242;SDS011;42155;53.096;23.226;2023-07-29T10:50:34;3.92;;;2.53;;
56242;SDS011;42155;53.096;23.226;2023-07-29T10:56:48;3.80;;;2.65;;
56242;SDS011;42155;53.096;23.226;2023-07-29T10:58:49;6.97;;;2.90;;
56242;SDS011;42155;53.096;23.226;2023-07-29T11:00:49;3.20;;;2.35;;
56242;SDS011;42155;53.096;23.226;2023-07-29T11:03:00;3.63;;;2.38;;
56242;SDS011;42155;53.096;23.226;2023-07-29T11:05:06;4.75;;;2.47;;
56242;SDS011;42155;53.096;23.226;2023-07-29T11:11:49;3.25;;;2.25;;
56242;SDS011;42155;53.096;23.226;2023-07-29T11:13:50;3.30;;;2.40;;
56242;SDS011;42155;53.096;23.226;2023-07-29T11:15:51;4.03;;;2.53;;
56242;SDS011;42155;53.096;23.226;2023-07-29T11:17:54;5.72;;;2.60;;
56242;SDS011;42155;53.096;23.226;2023-07-29T11:20:01;4.07;;;2.20;;
56242;SDS011;42155;53.096;23.226;2023-07-29T11:22:02;5.70;;;2.45;;
56242;SDS011;42155;53.096;23.226;2023-07-29T11:24:03;4.20;;;2.53;;
56242;SDS011;42155;53.096;23.226;2023-07-29T11:26:03;3.95;;;2.40;;
56242;SDS011;42155;53.096;23.226;2023-07-29T11:28:04;4.00;;;2.60;;
56242;SDS011;42155;53.096;23.226;2023-07-29T11:30:08;4.85;;;2.50;;
56242;SDS011;42155;53.096;23.226;2023-07-29T11:32:10;3.72;;;2.45;;
56242;SDS011;42155;53.096;23.226;2023-07-29T11:34:11;3.20;;;2.28;;
56242;SDS011;42155;53.096;23.226;2023-07-29T11:36:18;3.83;;;2.25;;
56242;SDS011;42155;53.096;23.226;2023-07-29T11:38:19;2.92;;;2.10;;
56242;SDS011;42155;53.096;23.226;2023-07-29T11:40:21;4.20;;;2.08;;
56242;SDS011;42155;53.096;23.226;2023-07-29T11:42:22;3.95;;;2.33;;
56242;SDS011;42155;53.096;23.226;2023-07-29T11:44:24;4.30;;;2.40;;
56242;SDS011;42155;53.096;23.226;2023-07-29T11:46:25;5.57;;;2.38;;
56242;SDS011;42155;53.096;23.226;2023-07-29T11:48:30;4.07;;;2.60;;
56242;SDS011;42155;53.096;23.226;2023-07-29T11:50:32;3.58;;;2.30;;
56242;SDS011;42155;53.096;23.226;2023-07-29T11:52:33;6.25;;;2.40;;
56242;SDS011;42155;53.096;23.226;2023-07-29T11:54:34;2.67;;;1.80;;
56242;SDS011;42155;53.096;23.226;2023-07-29T11:56:35;4.85;;;2.55;;
56242;SDS011;42155;53.096;23.226;2023-07-29T11:58:37;3.17;;;2.20;;
56242;SDS011;42155;53.096;23.226;2023-07-29T12:00:37;4.40;;;2.38;;
56242;SDS011;42155;53.096;23.226;2023-07-29T12:02:39;3.17;;;2.40;;
56242;SDS011;42155;53.096;23.226;2023-07-29T12:04:41;4.43;;;2.35;;